createdAt,value
2022-08-21T00:01:50.850Z,1.00
2022-08-21T00:04:22.381Z,0.90
2022-08-21T00:06:51.099Z,0.90
2022-08-21T00:09:18.641Z,0.98
2022-08-21T00:11:45.790Z,0.90
2022-08-21T00:14:13.934Z,1.10
2022-08-21T00:16:41.270Z,1.10
2022-08-21T00:19:09.524Z,1.00
2022-08-21T00:21:37.398Z,1.35
2022-08-21T00:24:04.593Z,1.08
2022-08-21T00:26:31.241Z,1.10
2022-08-21T00:28:58.398Z,1.25
2022-08-21T00:31:26.144Z,0.95
2022-08-21T00:33:52.960Z,1.30
2022-08-21T00:36:27.325Z,0.90
2022-08-21T00:38:54.156Z,1.20
2022-08-21T00:41:38.206Z,1.15
2022-08-21T00:44:07.898Z,1.30
2022-08-21T00:46:35.362Z,1.27
2022-08-21T00:49:02.080Z,1.52
2022-08-21T00:51:40.965Z,1.45
2022-08-21T00:54:12.980Z,1.50
2022-08-21T00:56:48.339Z,1.42
2022-08-21T00:59:17.449Z,1.48
2022-08-21T01:01:44.132Z,1.15
2022-08-21T01:04:11.085Z,1.15
2022-08-21T01:06:37.998Z,1.00
2022-08-21T01:09:04.907Z,1.17
2022-08-21T01:11:32.253Z,1.10
2022-08-21T01:13:59.017Z,1.20
2022-08-21T01:16:26.166Z,1.00
2022-08-21T01:18:53.134Z,1.10
2022-08-21T01:21:28.226Z,1.25
2022-08-21T01:23:57.402Z,1.23
2022-08-21T01:26:33.882Z,1.08
2022-08-21T01:29:11.206Z,1.00
2022-08-21T01:31:38.263Z,1.00
2022-08-21T01:34:05.128Z,0.95
2022-08-21T01:36:32.525Z,1.30
2022-08-21T01:38:59.537Z,1.67
2022-08-21T01:41:26.431Z,1.30
2022-08-21T01:43:53.075Z,1.27
2022-08-21T01:46:20.684Z,1.42
2022-08-21T01:48:47.387Z,1.20
2022-08-21T01:51:15.739Z,1.13
2022-08-21T01:53:42.969Z,1.83
2022-08-21T01:56:12.571Z,1.20
2022-08-21T01:58:41.310Z,1.65
2022-08-21T02:01:08.557Z,1.33
2022-08-21T02:03:36.278Z,1.40
2022-08-21T02:06:05.608Z,1.20
2022-08-21T02:08:32.735Z,1.40
2022-08-21T02:10:59.662Z,1.30
2022-08-21T02:13:26.690Z,1.33
2022-08-21T02:15:53.428Z,1.45
2022-08-21T02:18:20.102Z,1.20
2022-08-21T02:20:49.251Z,1.60
2022-08-21T02:23:27.044Z,1.30
2022-08-21T02:26:07.780Z,1.23
2022-08-21T02:28:36.159Z,1.40
2022-08-21T02:31:03.314Z,1.80
2022-08-21T02:33:31.182Z,0.98
2022-08-21T02:35:58.400Z,1.25
2022-08-21T02:38:28.229Z,1.20
2022-08-21T02:40:56.210Z,1.58
2022-08-21T02:43:24.678Z,1.33
2022-08-21T02:45:52.544Z,1.20
2022-08-21T02:48:22.688Z,1.10
2022-08-21T02:50:58.682Z,1.27
2022-08-21T02:53:25.737Z,1.73
2022-08-21T02:55:53.765Z,1.30
2022-08-21T02:58:28.327Z,1.30
2022-08-21T03:00:55.809Z,1.30
2022-08-21T03:03:22.619Z,1.17
2022-08-21T03:05:50.090Z,1.15
2022-08-21T03:08:18.727Z,1.27
2022-08-21T03:10:49.832Z,1.38
2022-08-21T03:13:17.101Z,1.20
2022-08-21T03:15:44.877Z,1.10
2022-08-21T03:18:12.517Z,1.35
2022-08-21T03:20:41.318Z,1.25
2022-08-21T03:23:13.159Z,1.30
2022-08-21T03:25:44.071Z,1.10
2022-08-21T03:28:14.944Z,1.27
2022-08-21T03:30:44.748Z,1.63
2022-08-21T03:33:13.098Z,1.25
2022-08-21T03:35:48.156Z,1.52
2022-08-21T03:38:14.985Z,1.48
2022-08-21T03:40:43.748Z,1.48
2022-08-21T03:43:11.249Z,1.60
2022-08-21T03:45:39.206Z,1.17
2022-08-21T03:48:07.689Z,1.15
2022-08-21T03:50:41.185Z,1.35
2022-08-21T03:53:16.735Z,1.52
2022-08-21T03:55:49.332Z,1.10
2022-08-21T03:58:18.093Z,1.00
2022-08-21T04:00:47.486Z,1.20
2022-08-21T04:03:14.234Z,1.10
2022-08-21T04:05:42.889Z,1.45
2022-08-21T04:08:10.167Z,1.77
2022-08-21T04:10:39.332Z,1.02
2022-08-21T04:13:07.454Z,1.20
2022-08-21T04:15:35.123Z,1.00
2022-08-21T04:18:02.141Z,1.20
2022-08-21T04:20:29.085Z,1.15
2022-08-21T04:22:56.241Z,1.42
2022-08-21T04:25:24.315Z,1.02
2022-08-21T04:27:52.215Z,1.33
2022-08-21T04:30:19.554Z,1.35
2022-08-21T04:32:56.149Z,1.52
2022-08-21T04:35:24.724Z,0.90
2022-08-21T04:37:51.921Z,1.15
2022-08-21T04:40:20.747Z,1.00
2022-08-21T04:42:55.650Z,1.60
2022-08-21T04:45:28.014Z,1.10
2022-08-21T04:47:57.950Z,1.37
2022-08-21T04:50:31.136Z,1.23
2022-08-21T04:52:58.699Z,1.30
2022-08-21T04:55:28.532Z,1.70
2022-08-21T04:57:57.154Z,0.85
2022-08-21T05:00:25.738Z,1.48
2022-08-21T05:02:57.539Z,1.25
2022-08-21T05:05:25.191Z,1.00
2022-08-21T05:07:54.256Z,1.00
2022-08-21T05:10:21.645Z,1.45
2022-08-21T05:12:48.523Z,1.25
2022-08-21T05:15:15.570Z,1.30
2022-08-21T05:17:42.935Z,1.20
2022-08-21T05:20:11.690Z,1.10
2022-08-21T05:22:38.422Z,1.10
2022-08-21T05:25:10.624Z,1.10
2022-08-21T05:27:39.645Z,0.95
2022-08-21T05:30:10.741Z,1.00
2022-08-21T05:32:37.845Z,1.00
2022-08-21T05:35:08.450Z,1.00
2022-08-21T05:37:36.136Z,1.40
2022-08-21T05:40:21.600Z,1.00
2022-08-21T05:42:55.627Z,0.90
2022-08-21T05:45:41.983Z,1.13
2022-08-21T05:48:18.023Z,1.33
2022-08-21T05:50:47.260Z,1.00
2022-08-21T05:53:15.639Z,2.10
2022-08-21T05:55:46.109Z,1.33
2022-08-21T05:58:19.778Z,1.10
2022-08-21T06:00:48.632Z,1.23
2022-08-21T06:03:23.568Z,1.20
2022-08-21T06:05:50.985Z,1.10
2022-08-21T06:08:19.251Z,1.55
2022-08-21T06:10:47.709Z,0.95
2022-08-21T06:13:15.518Z,1.25
2022-08-21T06:15:42.826Z,1.20
2022-08-21T06:18:10.140Z,1.30
2022-08-21T06:20:37.098Z,1.20
2022-08-21T06:23:07.306Z,1.25
2022-08-21T06:25:34.234Z,1.58
2022-08-21T06:28:07.196Z,1.40
2022-08-21T06:30:35.450Z,0.98
2022-08-21T06:33:03.392Z,1.27
2022-08-21T06:35:30.405Z,1.50
2022-08-21T06:37:58.594Z,1.45
2022-08-21T06:40:26.494Z,1.20
2022-08-21T06:42:53.569Z,1.10
2022-08-21T06:45:20.879Z,1.17
2022-08-21T06:47:47.734Z,0.90
2022-08-21T06:50:14.493Z,1.10
2022-08-21T06:52:41.472Z,1.27
2022-08-21T06:55:10.850Z,1.02
2022-08-21T06:57:37.703Z,1.67
2022-08-21T07:00:06.536Z,0.88
2022-08-21T07:02:34.695Z,1.13
2022-08-21T07:05:09.010Z,0.85
2022-08-21T07:07:45.491Z,1.20
2022-08-21T07:10:21.987Z,1.27
2022-08-21T07:12:49.541Z,0.90
2022-08-21T07:15:17.957Z,1.23
2022-08-21T07:17:44.713Z,0.88
2022-08-21T07:20:11.687Z,0.90
2022-08-21T07:22:41.900Z,0.95
2022-08-21T07:25:09.648Z,1.00
2022-08-21T07:27:37.317Z,0.85
2022-08-21T07:30:06.157Z,0.82
2022-08-21T07:32:33.325Z,0.80
2022-08-21T07:35:00.058Z,0.90
2022-08-21T07:37:27.058Z,1.10
2022-08-21T07:39:53.973Z,0.85
2022-08-21T07:42:20.839Z,0.90
2022-08-21T07:44:47.729Z,0.93
2022-08-21T07:47:17.731Z,1.00
2022-08-21T07:50:04.947Z,0.90
2022-08-21T07:52:32.069Z,0.93
2022-08-21T07:55:05.376Z,0.80
2022-08-21T07:57:33.120Z,0.90
2022-08-21T07:59:59.932Z,0.90
2022-08-21T08:02:29.168Z,1.05
2022-08-21T08:05:00.221Z,0.93
2022-08-21T08:07:27.243Z,1.00
2022-08-21T08:09:54.252Z,0.70
2022-08-21T08:12:21.819Z,0.85
2022-08-21T08:14:48.656Z,0.93
2022-08-21T08:17:15.414Z,1.05
2022-08-21T08:19:42.179Z,0.90
2022-08-21T08:22:21.608Z,1.13
2022-08-21T08:24:49.485Z,1.02
2022-08-21T08:27:17.330Z,1.02
2022-08-21T08:29:45.171Z,0.90
2022-08-21T08:32:12.356Z,1.00
2022-08-21T08:34:39.984Z,0.85
2022-08-21T08:37:10.677Z,0.90
2022-08-21T08:39:39.081Z,0.70
2022-08-21T08:42:34.042Z,0.70
2022-08-21T08:45:14.815Z,0.73
2022-08-21T08:47:47.730Z,0.80
2022-08-21T08:53:05.912Z,0.70
2022-08-21T08:55:42.197Z,1.40
2022-08-21T08:58:27.878Z,0.70
2022-08-21T09:00:56.267Z,1.10
2022-08-21T09:03:27.903Z,1.23
2022-08-21T09:06:07.556Z,1.20
2022-08-21T09:09:03.548Z,1.00
2022-08-21T09:11:53.350Z,1.13
2022-08-21T09:14:45.346Z,0.93
2022-08-21T09:17:27.736Z,0.90
2022-08-21T09:20:18.716Z,1.00
2022-08-21T09:22:54.130Z,0.80
2022-08-21T09:25:31.965Z,0.90
2022-08-21T09:27:58.736Z,0.88
2022-08-21T09:30:30.494Z,0.90
2022-08-21T09:32:57.984Z,1.15
2022-08-21T09:35:25.806Z,0.90
2022-08-21T09:38:03.976Z,0.63
2022-08-21T09:40:36.752Z,0.98
2022-08-21T09:45:34.186Z,0.90
2022-08-21T09:53:55.979Z,0.90
2022-08-21T09:59:36.336Z,0.80
2022-08-21T10:02:35.943Z,0.73
2022-08-21T10:05:24.857Z,1.15
2022-08-21T10:07:52.330Z,1.10
2022-08-21T10:10:27.759Z,0.70
2022-08-21T10:13:15.125Z,0.70
2022-08-21T10:15:53.706Z,0.50
2022-08-21T10:18:39.072Z,0.80
2022-08-21T10:21:27.884Z,0.80
2022-08-21T10:24:31.072Z,0.93
2022-08-21T10:27:11.133Z,0.80
2022-08-21T10:30:00.903Z,0.70
2022-08-21T10:32:57.014Z,0.93
2022-08-21T10:35:23.755Z,1.00
2022-08-21T10:38:10.167Z,0.80
2022-08-21T10:40:59.746Z,0.70
2022-08-21T10:43:40.164Z,0.82
2022-08-21T10:46:51.483Z,1.00
2022-08-21T10:49:18.212Z,0.90
2022-08-21T10:52:20.133Z,1.00
2022-08-21T10:54:53.483Z,0.90
2022-08-21T10:57:43.485Z,0.93
2022-08-21T11:00:14.954Z,0.90
2022-08-21T11:02:46.417Z,0.90
2022-08-21T11:05:20.626Z,0.80
2022-08-21T11:08:01.239Z,0.70
2022-08-21T11:10:58.209Z,1.10
2022-08-21T11:13:35.935Z,0.70
2022-08-21T11:16:18.620Z,0.90
2022-08-21T11:18:52.158Z,0.80
2022-08-21T11:21:35.734Z,0.88
2022-08-21T11:24:17.006Z,0.80
2022-08-21T11:27:16.278Z,0.70
2022-08-21T11:29:45.955Z,0.98
2022-08-21T11:32:27.837Z,1.05
2022-08-21T11:35:12.947Z,1.10
2022-08-21T11:37:57.681Z,0.98
2022-08-21T11:40:36.582Z,0.95
2022-08-21T11:43:31.245Z,0.80
2022-08-21T11:46:23.871Z,0.90
2022-08-21T11:49:02.915Z,0.77
2022-08-21T11:52:14.672Z,0.88
2022-08-21T11:55:04.220Z,1.00
2022-08-21T11:57:56.236Z,0.70
2022-08-21T12:00:34.509Z,0.80
2022-08-21T12:03:14.137Z,0.70
2022-08-21T12:05:43.428Z,0.70
2022-08-21T12:08:10.054Z,0.73
2022-08-21T12:10:49.064Z,0.90
2022-08-21T12:13:40.699Z,0.60
2022-08-21T12:16:29.060Z,0.70
2022-08-21T12:19:31.529Z,0.70
2022-08-21T12:21:58.142Z,0.60
2022-08-21T12:24:28.065Z,0.63
2022-08-21T12:26:56.308Z,0.70
2022-08-21T12:29:33.853Z,0.68
2022-08-21T12:32:01.965Z,0.60
2022-08-21T12:34:54.603Z,0.75
2022-08-21T12:37:40.905Z,0.90
2022-08-21T12:40:42.752Z,0.80
2022-08-21T12:43:17.461Z,0.70
2022-08-21T12:45:52.241Z,0.80
2022-08-21T12:48:28.024Z,0.50
2022-08-21T12:51:34.962Z,0.70
2022-08-21T12:54:01.783Z,0.63
2022-08-21T12:56:32.358Z,0.60
2022-08-21T12:59:06.252Z,0.60
2022-08-21T13:01:41.863Z,0.73
2022-08-21T13:04:17.549Z,0.60
2022-08-21T13:06:52.399Z,0.60
2022-08-21T13:09:24.581Z,1.27
2022-08-21T13:11:52.647Z,0.60
2022-08-21T13:14:26.836Z,0.63
2022-08-21T13:16:56.107Z,0.77
2022-08-21T13:19:24.109Z,0.60
2022-08-21T13:21:53.498Z,0.70
2022-08-21T13:24:41.107Z,0.63
2022-08-21T13:27:31.383Z,0.70
2022-08-21T13:30:23.241Z,0.70
2022-08-21T13:32:53.577Z,0.60
2022-08-21T13:35:27.089Z,0.80
2022-08-21T13:37:56.362Z,0.70
2022-08-21T13:40:30.368Z,0.50
2022-08-21T13:42:58.003Z,1.08
2022-08-21T13:45:33.778Z,0.98
2022-08-21T13:48:06.721Z,1.00
2022-08-21T13:50:43.640Z,1.27
2022-08-21T13:53:25.095Z,1.45
2022-08-21T13:55:52.246Z,1.52
2022-08-21T13:58:46.671Z,0.70
2022-08-21T14:01:38.195Z,1.00
2022-08-21T14:04:20.563Z,0.77
2022-08-21T14:06:48.127Z,0.83
2022-08-21T14:09:31.771Z,0.70
2022-08-21T14:12:22.253Z,0.70
2022-08-21T14:14:52.843Z,2.00
2022-08-21T14:17:34.656Z,1.02
2022-08-21T14:20:02.196Z,1.05
2022-08-21T14:22:44.545Z,1.52
2022-08-21T14:25:20.385Z,1.10
2022-08-21T14:28:19.317Z,0.68
2022-08-21T14:30:47.513Z,0.82
2022-08-21T14:33:32.016Z,2.58
2022-08-21T14:35:59.949Z,2.08
2022-08-21T14:38:28.718Z,2.15
2022-08-21T14:41:12.595Z,3.28
2022-08-21T14:43:40.155Z,1.35
2022-08-21T14:46:06.976Z,1.85
2022-08-21T14:48:33.921Z,1.15
2022-08-21T14:51:00.936Z,0.80
2022-08-21T14:53:27.901Z,0.88
2022-08-21T14:56:08.090Z,0.90
2022-08-21T14:58:39.230Z,0.88
2022-08-21T15:01:10.511Z,0.82
2022-08-21T15:03:38.163Z,0.70
2022-08-21T15:06:07.504Z,1.10
2022-08-21T15:08:35.021Z,0.63
2022-08-21T15:11:13.805Z,0.77
2022-08-21T15:13:43.393Z,0.90
2022-08-21T15:16:12.163Z,0.90
2022-08-21T15:18:39.650Z,0.82
2022-08-21T15:21:06.974Z,0.93
2022-08-21T15:23:33.901Z,0.90
2022-08-21T15:26:00.895Z,0.93
2022-08-21T15:28:31.864Z,0.95
2022-08-21T15:31:01.714Z,1.00
2022-08-21T15:33:29.098Z,1.10
2022-08-21T15:35:56.015Z,1.20
2022-08-21T15:38:23.092Z,1.02
2022-08-21T15:40:52.317Z,0.95
2022-08-21T15:43:29.838Z,0.98
2022-08-21T15:45:59.943Z,0.90
2022-08-21T15:48:27.178Z,1.23
2022-08-21T15:50:54.144Z,1.38
2022-08-21T15:53:21.072Z,0.90
2022-08-21T15:55:48.162Z,1.40
2022-08-21T15:58:17.534Z,1.00
2022-08-21T16:00:47.978Z,1.00
2022-08-21T16:03:19.142Z,1.15
2022-08-21T16:05:46.359Z,1.00
2022-08-21T16:08:13.223Z,1.00
2022-08-21T16:10:40.584Z,1.10
2022-08-21T16:13:21.181Z,0.65
2022-08-21T16:15:48.101Z,0.93
2022-08-21T16:18:15.232Z,0.90
2022-08-21T16:20:42.228Z,0.80
2022-08-21T16:23:09.087Z,0.90
2022-08-21T16:25:38.603Z,0.60
2022-08-21T16:28:09.789Z,0.77
2022-08-21T16:30:39.194Z,0.50
2022-08-21T16:33:06.799Z,0.60
2022-08-21T16:35:33.664Z,0.73
2022-08-21T16:38:01.200Z,0.60
2022-08-21T16:40:28.680Z,0.82
2022-08-21T16:42:56.560Z,0.60
2022-08-21T16:45:23.520Z,0.65
2022-08-21T16:47:51.519Z,0.90
2022-08-21T16:50:22.750Z,0.85
2022-08-21T16:52:50.222Z,0.90
2022-08-21T16:55:17.689Z,0.90
2022-08-21T16:57:44.890Z,0.82
2022-08-21T17:00:13.958Z,0.95
2022-08-21T17:02:55.525Z,0.70
2022-08-21T17:05:22.859Z,1.08
2022-08-21T17:07:49.832Z,0.85
2022-08-21T17:10:17.531Z,1.27
2022-08-21T17:12:51.536Z,0.90
2022-08-21T17:15:23.983Z,0.80
2022-08-21T17:17:51.644Z,1.00
2022-08-21T17:20:19.423Z,1.35
2022-08-21T17:22:46.468Z,1.02
2022-08-21T17:25:13.811Z,1.02
2022-08-21T17:27:41.641Z,0.98
2022-08-21T17:30:08.983Z,1.10
2022-08-21T17:32:35.895Z,1.10
2022-08-21T17:35:03.065Z,1.30
2022-08-21T17:37:30.109Z,1.02
2022-08-21T17:39:57.618Z,1.38
2022-08-21T17:42:26.973Z,1.33
2022-08-21T17:44:56.633Z,1.30
2022-08-21T17:47:25.152Z,1.00
2022-08-21T17:49:54.895Z,1.10
2022-08-21T17:52:22.897Z,1.00
2022-08-21T17:57:35.779Z,1.40
2022-08-21T18:00:05.709Z,1.17
2022-08-21T18:02:33.582Z,1.17
2022-08-21T18:05:00.528Z,1.08
2022-08-21T18:07:32.824Z,1.20
2022-08-21T18:10:02.076Z,1.35
2022-08-21T18:12:29.926Z,1.13
2022-08-21T18:14:57.397Z,1.20
2022-08-21T18:17:25.547Z,1.17
2022-08-21T18:19:52.345Z,1.40
2022-08-21T18:22:19.590Z,1.20
2022-08-21T18:24:46.597Z,1.40
2022-08-21T18:27:15.200Z,1.33
2022-08-21T18:29:47.471Z,1.25
2022-08-21T18:32:30.500Z,1.60
2022-08-21T18:35:01.684Z,1.38
2022-08-21T18:37:28.947Z,1.38
2022-08-21T18:39:56.791Z,1.00
2022-08-21T18:42:28.361Z,1.20
2022-08-21T18:45:01.623Z,1.20
2022-08-21T18:47:37.569Z,1.40
2022-08-21T18:50:10.863Z,1.42
2022-08-21T18:52:38.578Z,1.30
2022-08-21T18:55:13.432Z,1.30
2022-08-21T18:57:42.350Z,1.30
2022-08-21T19:00:18.609Z,1.50
2022-08-21T19:02:45.459Z,1.27
2022-08-21T19:05:15.185Z,1.30
2022-08-21T19:07:41.966Z,1.10
2022-08-21T19:10:28.033Z,1.30
2022-08-21T19:12:59.371Z,1.38
2022-08-21T19:15:26.767Z,1.33
2022-08-21T19:17:54.489Z,1.60
2022-08-21T19:20:28.353Z,1.20
2022-08-21T19:22:56.393Z,1.08
2022-08-21T19:28:16.207Z,1.10
2022-08-21T19:30:56.508Z,1.10
2022-08-21T19:33:37.991Z,1.30
2022-08-21T19:36:08.157Z,1.02
2022-08-21T19:38:36.730Z,1.05
2022-08-21T19:41:06.277Z,1.00
2022-08-21T19:43:41.044Z,1.27
2022-08-21T19:46:08.079Z,1.00
2022-08-21T19:48:37.367Z,1.27
2022-08-21T19:51:05.302Z,1.10
2022-08-21T19:53:32.072Z,1.30
2022-08-21T19:55:58.853Z,1.20
2022-08-21T19:58:38.592Z,1.15
2022-08-21T20:01:16.578Z,0.98
2022-08-21T20:06:33.244Z,1.08
2022-08-21T20:09:00.171Z,1.25
2022-08-21T20:11:36.531Z,1.35
2022-08-21T20:14:04.995Z,1.15
2022-08-21T20:16:31.718Z,1.33
2022-08-21T20:18:58.681Z,1.23
2022-08-21T20:21:25.441Z,1.40
2022-08-21T20:23:53.011Z,1.55
2022-08-21T20:26:19.943Z,1.30
2022-08-21T20:31:33.817Z,1.23
2022-08-21T20:34:00.835Z,1.38
2022-08-21T20:36:27.599Z,1.05
2022-08-21T20:38:54.726Z,1.30
2022-08-21T20:41:30.443Z,1.20
2022-08-21T20:43:59.222Z,1.48
2022-08-21T20:46:27.732Z,1.25
2022-08-21T20:48:54.914Z,1.13
2022-08-21T20:51:34.783Z,1.35
2022-08-21T20:54:04.565Z,1.10
2022-08-21T20:56:56.287Z,1.40
2022-08-21T20:59:33.339Z,1.37
2022-08-21T21:02:15.130Z,1.58
2022-08-21T21:05:22.270Z,1.63
2022-08-21T21:08:19.575Z,1.20
2022-08-21T21:10:55.349Z,0.90
2022-08-21T21:13:44.035Z,1.30
2022-08-21T21:16:17.973Z,1.30
2022-08-21T21:18:51.047Z,1.10
2022-08-21T21:22:11.142Z,1.10
2022-08-21T21:24:51.346Z,1.08
2022-08-21T21:27:29.591Z,1.67
2022-08-21T21:30:26.799Z,1.30
2022-08-21T21:32:53.730Z,1.30
2022-08-21T21:35:32.560Z,1.20
2022-08-21T21:38:26.158Z,1.10
2022-08-21T21:41:03.154Z,1.10
2022-08-21T21:43:52.885Z,1.10
2022-08-21T21:46:34.716Z,1.35
2022-08-21T21:49:33.143Z,1.40
2022-08-21T21:52:21.133Z,1.30
2022-08-21T21:55:01.321Z,1.25
2022-08-21T21:57:45.913Z,1.35
2022-08-21T22:00:20.895Z,1.52
2022-08-21T22:03:16.670Z,1.40
2022-08-21T22:06:07.565Z,1.83
2022-08-21T22:09:05.231Z,1.48
2022-08-21T22:12:03.217Z,1.65
2022-08-21T22:14:40.728Z,1.20
2022-08-21T22:17:28.905Z,1.30
2022-08-21T22:19:58.346Z,1.30
2022-08-21T22:22:28.991Z,1.52
2022-08-21T22:25:03.802Z,1.40
2022-08-21T22:27:37.111Z,1.40
2022-08-21T22:32:52.426Z,1.65
2022-08-21T22:35:24.019Z,1.50
2022-08-21T22:37:55.147Z,1.70
2022-08-21T22:40:32.353Z,1.70
2022-08-21T22:43:16.343Z,2.00
2022-08-21T22:45:57.511Z,2.80
2022-08-21T22:48:29.531Z,1.95
2022-08-21T22:51:24.226Z,1.43
2022-08-21T22:53:57.535Z,1.75
2022-08-21T22:56:35.302Z,2.10
2022-08-21T22:59:11.215Z,1.58
2022-08-21T23:01:44.712Z,2.10
2022-08-21T23:04:22.773Z,1.60
2022-08-21T23:07:02.435Z,2.58
2022-08-21T23:09:32.650Z,2.30
2022-08-21T23:12:21.069Z,2.03
2022-08-21T23:14:55.026Z,2.10
2022-08-21T23:17:49.817Z,2.10
2022-08-21T23:20:31.303Z,2.25
2022-08-21T23:23:19.182Z,2.00
2022-08-21T23:26:17.608Z,1.50
2022-08-21T23:29:13.941Z,1.40
2022-08-21T23:32:08.339Z,1.88
2022-08-21T23:34:52.678Z,1.75
2022-08-21T23:37:51.481Z,1.70
2022-08-21T23:40:50.809Z,1.65
2022-08-21T23:43:38.849Z,1.60
2022-08-21T23:46:08.554Z,1.95
2022-08-21T23:49:00.740Z,2.38
2022-08-21T23:51:47.170Z,4.47
2022-08-21T23:54:29.306Z,4.32
